sensor_id;sensor_type;location;lat;lon;timestamp;P1;durP1;ratioP1;P2;durP2;ratioP2
45836;SDS011;31548;51.420;-0.040;2023-06-14T00:01:59;2.80;;;1.08;;
45836;SDS011;31548;51.420;-0.040;2023-06-14T00:04:27;5.65;;;0.98;;
45836;SDS011;31548;51.420;-0.040;2023-06-14T00:06:55;1.55;;;0.82;;
45836;SDS011;31548;51.420;-0.040;2023-06-14T00:09:23;1.90;;;0.65;;
45836;SDS011;31548;51.420;-0.040;2023-06-14T00:11:51;4.10;;;0.98;;
45836;SDS011;31548;51.420;-0.040;2023-06-14T00:14:19;2.72;;;0.70;;
45836;SDS011;31548;51.420;-0.040;2023-06-14T00:16:46;2.50;;;0.80;;
45836;SDS011;31548;51.420;-0.040;2023-06-14T00:19:14;5.53;;;0.63;;
45836;SDS011;31548;51.420;-0.040;2023-06-14T00:21:43;3.55;;;0.85;;
45836;SDS011;31548;51.420;-0.040;2023-06-14T00:24:11;1.30;;;0.70;;
45836;SDS011;31548;51.420;-0.040;2023-06-14T00:26:38;4.72;;;1.35;;
45836;SDS011;31548;51.420;-0.040;2023-06-14T00:29:06;3.03;;;0.50;;
45836;SDS011;31548;51.420;-0.040;2023-06-14T00:31:35;3.53;;;0.70;;
45836;SDS011;31548;51.420;-0.040;2023-06-14T00:34:02;2.65;;;0.80;;
45836;SDS011;31548;51.420;-0.040;2023-06-14T00:36:30;3.80;;;0.63;;
45836;SDS011;31548;51.420;-0.040;2023-06-14T00:38:57;5.40;;;0.77;;
45836;SDS011;31548;51.420;-0.040;2023-06-14T00:41:25;3.22;;;0.82;;
45836;SDS011;31548;51.420;-0.040;2023-06-14T00:43:53;2.25;;;0.63;;
45836;SDS011;31548;51.420;-0.040;2023-06-14T00:46:23;1.75;;;0.60;;
45836;SDS011;31548;51.420;-0.040;2023-06-14T00:48:54;6.18;;;0.77;;
45836;SDS011;31548;51.420;-0.040;2023-06-14T00:51:24;2.03;;;0.68;;
45836;SDS011;31548;51.420;-0.040;2023-06-14T00:53:51;2.42;;;0.70;;
45836;SDS011;31548;51.420;-0.040;2023-06-14T00:56:19;8.90;;;0.60;;
45836;SDS011;31548;51.420;-0.040;2023-06-14T00:58:50;3.55;;;0.88;;
45836;SDS011;31548;51.420;-0.040;2023-06-14T01:01:18;1.95;;;0.63;;
45836;SDS011;31548;51.420;-0.040;2023-06-14T01:03:46;6.07;;;0.70;;
45836;SDS011;31548;51.420;-0.040;2023-06-14T01:11:58;2.55;;;0.70;;
45836;SDS011;31548;51.420;-0.040;2023-06-14T01:14:32;3.88;;;0.70;;
45836;SDS011;31548;51.420;-0.040;2023-06-14T01:17:01;3.83;;;0.85;;
45836;SDS011;31548;51.420;-0.040;2023-06-14T01:19:29;3.65;;;0.80;;
45836;SDS011;31548;51.420;-0.040;2023-06-14T01:21:59;4.53;;;0.63;;
45836;SDS011;31548;51.420;-0.040;2023-06-14T01:24:29;4.10;;;0.95;;
45836;SDS011;31548;51.420;-0.040;2023-06-14T01:27:00;10.35;;;1.13;;
45836;SDS011;31548;51.420;-0.040;2023-06-14T01:29:29;7.82;;;0.90;;
45836;SDS011;31548;51.420;-0.040;2023-06-14T01:31:59;3.30;;;0.70;;
45836;SDS011;31548;51.420;-0.040;2023-06-14T01:34:30;2.65;;;0.85;;
45836;SDS011;31548;51.420;-0.040;2023-06-14T01:36:58;4.70;;;0.90;;
45836;SDS011;31548;51.420;-0.040;2023-06-14T01:39:28;8.30;;;0.90;;
45836;SDS011;31548;51.420;-0.040;2023-06-14T01:41:56;4.32;;;1.15;;
45836;SDS011;31548;51.420;-0.040;2023-06-14T01:44:25;10.88;;;1.10;;
45836;SDS011;31548;51.420;-0.040;2023-06-14T01:46:53;4.53;;;0.80;;
45836;SDS011;31548;51.420;-0.040;2023-06-14T01:49:22;2.05;;;0.60;;
45836;SDS011;31548;51.420;-0.040;2023-06-14T01:51:50;5.28;;;0.90;;
45836;SDS011;31548;51.420;-0.040;2023-06-14T01:54:17;2.47;;;0.70;;
45836;SDS011;31548;51.420;-0.040;2023-06-14T01:56:45;3.78;;;0.85;;
45836;SDS011;31548;51.420;-0.040;2023-06-14T01:59:12;7.50;;;0.98;;
45836;SDS011;31548;51.420;-0.040;2023-06-14T02:01:40;4.10;;;0.90;;
45836;SDS011;31548;51.420;-0.040;2023-06-14T02:04:08;3.15;;;0.85;;
45836;SDS011;31548;51.420;-0.040;2023-06-14T02:06:37;5.18;;;0.98;;
45836;SDS011;31548;51.420;-0.040;2023-06-14T02:09:04;5.70;;;1.25;;
45836;SDS011;31548;51.420;-0.040;2023-06-14T02:11:32;5.05;;;0.85;;
45836;SDS011;31548;51.420;-0.040;2023-06-14T02:14:00;2.75;;;0.80;;
45836;SDS011;31548;51.420;-0.040;2023-06-14T02:16:28;3.92;;;0.85;;
45836;SDS011;31548;51.420;-0.040;2023-06-14T02:18:56;6.28;;;0.90;;
45836;SDS011;31548;51.420;-0.040;2023-06-14T02:21:24;7.10;;;1.00;;
45836;SDS011;31548;51.420;-0.040;2023-06-14T02:23:52;7.32;;;0.90;;
45836;SDS011;31548;51.420;-0.040;2023-06-14T02:26:20;2.78;;;0.57;;
45836;SDS011;31548;51.420;-0.040;2023-06-14T02:28:48;3.13;;;0.98;;
45836;SDS011;31548;51.420;-0.040;2023-06-14T02:31:15;5.75;;;0.93;;
45836;SDS011;31548;51.420;-0.040;2023-06-14T02:33:43;3.28;;;0.82;;
45836;SDS011;31548;51.420;-0.040;2023-06-14T02:36:10;4.10;;;0.60;;
45836;SDS011;31548;51.420;-0.040;2023-06-14T02:38:38;2.45;;;0.70;;
45836;SDS011;31548;51.420;-0.040;2023-06-14T02:41:08;5.63;;;0.80;;
45836;SDS011;31548;51.420;-0.040;2023-06-14T02:43:36;3.63;;;0.88;;
45836;SDS011;31548;51.420;-0.040;2023-06-14T02:46:05;6.32;;;0.98;;
45836;SDS011;31548;51.420;-0.040;2023-06-14T02:48:33;4.50;;;0.80;;
45836;SDS011;31548;51.420;-0.040;2023-06-14T02:51:01;6.30;;;0.80;;
45836;SDS011;31548;51.420;-0.040;2023-06-14T02:53:29;6.32;;;0.75;;
45836;SDS011;31548;51.420;-0.040;2023-06-14T02:55:57;4.18;;;0.85;;
45836;SDS011;31548;51.420;-0.040;2023-06-14T02:58:25;5.15;;;0.82;;
45836;SDS011;31548;51.420;-0.040;2023-06-14T03:00:52;5.82;;;0.70;;
45836;SDS011;31548;51.420;-0.040;2023-06-14T03:03:21;4.47;;;0.73;;
45836;SDS011;31548;51.420;-0.040;2023-06-14T03:05:54;5.45;;;0.75;;
45836;SDS011;31548;51.420;-0.040;2023-06-14T03:08:26;8.25;;;0.70;;
45836;SDS011;31548;51.420;-0.040;2023-06-14T03:10:59;4.03;;;1.00;;
45836;SDS011;31548;51.420;-0.040;2023-06-14T03:13:29;4.03;;;0.73;;
45836;SDS011;31548;51.420;-0.040;2023-06-14T03:15:59;8.40;;;1.88;;
45836;SDS011;31548;51.420;-0.040;2023-06-14T03:18:32;4.00;;;0.70;;
45836;SDS011;31548;51.420;-0.040;2023-06-14T03:21:04;3.80;;;1.00;;
45836;SDS011;31548;51.420;-0.040;2023-06-14T03:23:34;5.13;;;0.98;;
45836;SDS011;31548;51.420;-0.040;2023-06-14T03:26:03;8.55;;;1.35;;
45836;SDS011;31548;51.420;-0.040;2023-06-14T03:28:31;4.07;;;1.00;;
45836;SDS011;31548;51.420;-0.040;2023-06-14T03:30:59;4.50;;;0.90;;
45836;SDS011;31548;51.420;-0.040;2023-06-14T03:33:30;4.68;;;1.20;;
45836;SDS011;31548;51.420;-0.040;2023-06-14T03:35:58;4.55;;;0.93;;
45836;SDS011;31548;51.420;-0.040;2023-06-14T03:38:27;3.88;;;0.90;;
45836;SDS011;31548;51.420;-0.040;2023-06-14T03:40:54;9.25;;;0.88;;
45836;SDS011;31548;51.420;-0.040;2023-06-14T03:43:22;3.33;;;1.05;;
45836;SDS011;31548;51.420;-0.040;2023-06-14T03:45:50;5.63;;;1.17;;
45836;SDS011;31548;51.420;-0.040;2023-06-14T03:48:18;6.65;;;0.98;;
45836;SDS011;31548;51.420;-0.040;2023-06-14T03:50:46;5.72;;;0.70;;
45836;SDS011;31548;51.420;-0.040;2023-06-14T03:53:14;10.07;;;0.90;;
45836;SDS011;31548;51.420;-0.040;2023-06-14T03:55:44;9.40;;;1.17;;
45836;SDS011;31548;51.420;-0.040;2023-06-14T03:58:15;5.00;;;0.90;;
45836;SDS011;31548;51.420;-0.040;2023-06-14T04:00:43;6.00;;;0.90;;
45836;SDS011;31548;51.420;-0.040;2023-06-14T04:03:10;3.58;;;1.25;;
45836;SDS011;31548;51.420;-0.040;2023-06-14T04:05:40;5.22;;;0.93;;
45836;SDS011;31548;51.420;-0.040;2023-06-14T04:08:09;5.50;;;0.88;;
45836;SDS011;31548;51.420;-0.040;2023-06-14T04:10:37;4.63;;;0.88;;
45836;SDS011;31548;51.420;-0.040;2023-06-14T04:13:05;5.05;;;1.05;;
45836;SDS011;31548;51.420;-0.040;2023-06-14T04:15:34;4.00;;;1.20;;
45836;SDS011;31548;51.420;-0.040;2023-06-14T04:18:02;2.97;;;1.00;;
45836;SDS011;31548;51.420;-0.040;2023-06-14T04:20:31;2.95;;;1.02;;
45836;SDS011;31548;51.420;-0.040;2023-06-14T04:23:10;6.97;;;1.38;;
45836;SDS011;31548;51.420;-0.040;2023-06-14T04:25:39;5.50;;;1.27;;
45836;SDS011;31548;51.420;-0.040;2023-06-14T04:28:07;3.33;;;1.00;;
45836;SDS011;31548;51.420;-0.040;2023-06-14T04:30:35;5.30;;;1.63;;
45836;SDS011;31548;51.420;-0.040;2023-06-14T04:33:05;6.05;;;1.30;;
45836;SDS011;31548;51.420;-0.040;2023-06-14T04:35:33;3.67;;;1.20;;
45836;SDS011;31548;51.420;-0.040;2023-06-14T04:38:03;5.72;;;1.35;;
45836;SDS011;31548;51.420;-0.040;2023-06-14T04:40:37;4.90;;;1.00;;
45836;SDS011;31548;51.420;-0.040;2023-06-14T04:43:13;4.32;;;1.25;;
45836;SDS011;31548;51.420;-0.040;2023-06-14T04:45:42;4.60;;;1.20;;
45836;SDS011;31548;51.420;-0.040;2023-06-14T04:48:13;5.80;;;1.45;;
45836;SDS011;31548;51.420;-0.040;2023-06-14T04:50:41;6.90;;;1.00;;
45836;SDS011;31548;51.420;-0.040;2023-06-14T04:53:10;3.17;;;1.33;;
45836;SDS011;31548;51.420;-0.040;2023-06-14T04:55:38;9.32;;;1.90;;
45836;SDS011;31548;51.420;-0.040;2023-06-14T04:58:05;10.30;;;1.33;;
45836;SDS011;31548;51.420;-0.040;2023-06-14T05:00:33;6.70;;;1.17;;
45836;SDS011;31548;51.420;-0.040;2023-06-14T05:03:02;3.45;;;0.90;;
45836;SDS011;31548;51.420;-0.040;2023-06-14T05:05:33;5.05;;;1.23;;
45836;SDS011;31548;51.420;-0.040;2023-06-14T05:08:01;6.40;;;0.98;;
45836;SDS011;31548;51.420;-0.040;2023-06-14T05:10:28;6.90;;;1.33;;
45836;SDS011;31548;51.420;-0.040;2023-06-14T05:12:55;8.80;;;1.75;;
45836;SDS011;31548;51.420;-0.040;2023-06-14T05:15:23;7.35;;;1.60;;
45836;SDS011;31548;51.420;-0.040;2023-06-14T05:17:52;6.93;;;1.55;;
45836;SDS011;31548;51.420;-0.040;2023-06-14T05:20:23;10.48;;;1.55;;
45836;SDS011;31548;51.420;-0.040;2023-06-14T05:22:54;15.30;;;1.60;;
45836;SDS011;31548;51.420;-0.040;2023-06-14T05:25:23;5.65;;;1.40;;
45836;SDS011;31548;51.420;-0.040;2023-06-14T05:27:50;7.47;;;2.15;;
45836;SDS011;31548;51.420;-0.040;2023-06-14T05:30:18;8.35;;;1.17;;
45836;SDS011;31548;51.420;-0.040;2023-06-14T05:32:45;3.33;;;1.38;;
45836;SDS011;31548;51.420;-0.040;2023-06-14T05:35:13;2.70;;;1.00;;
45836;SDS011;31548;51.420;-0.040;2023-06-14T05:37:41;4.70;;;1.40;;
45836;SDS011;31548;51.420;-0.040;2023-06-14T05:40:09;5.28;;;1.50;;
45836;SDS011;31548;51.420;-0.040;2023-06-14T05:42:36;7.18;;;1.50;;
45836;SDS011;31548;51.420;-0.040;2023-06-14T05:45:04;10.05;;;1.45;;
45836;SDS011;31548;51.420;-0.040;2023-06-14T05:47:32;6.78;;;1.95;;
45836;SDS011;31548;51.420;-0.040;2023-06-14T05:50:00;3.85;;;1.35;;
45836;SDS011;31548;51.420;-0.040;2023-06-14T05:52:28;14.13;;;2.65;;
45836;SDS011;31548;51.420;-0.040;2023-06-14T05:54:56;11.32;;;1.60;;
45836;SDS011;31548;51.420;-0.040;2023-06-14T05:57:23;5.72;;;1.20;;
45836;SDS011;31548;51.420;-0.040;2023-06-14T05:59:51;4.75;;;1.60;;
45836;SDS011;31548;51.420;-0.040;2023-06-14T06:02:18;14.52;;;1.70;;
45836;SDS011;31548;51.420;-0.040;2023-06-14T06:04:45;5.15;;;1.50;;
45836;SDS011;31548;51.420;-0.040;2023-06-14T06:07:13;6.70;;;1.42;;
45836;SDS011;31548;51.420;-0.040;2023-06-14T06:09:41;11.68;;;1.80;;
45836;SDS011;31548;51.420;-0.040;2023-06-14T06:12:08;8.02;;;1.75;;
45836;SDS011;31548;51.420;-0.040;2023-06-14T06:14:36;7.57;;;2.20;;
45836;SDS011;31548;51.420;-0.040;2023-06-14T06:17:04;6.45;;;1.70;;
45836;SDS011;31548;51.420;-0.040;2023-06-14T06:19:32;8.73;;;1.60;;
45836;SDS011;31548;51.420;-0.040;2023-06-14T06:21:59;13.65;;;1.90;;
45836;SDS011;31548;51.420;-0.040;2023-06-14T06:24:26;13.40;;;1.83;;
45836;SDS011;31548;51.420;-0.040;2023-06-14T06:26:54;5.25;;;1.88;;
45836;SDS011;31548;51.420;-0.040;2023-06-14T06:29:22;10.73;;;2.15;;
45836;SDS011;31548;51.420;-0.040;2023-06-14T06:31:49;8.43;;;1.98;;
45836;SDS011;31548;51.420;-0.040;2023-06-14T06:34:17;12.07;;;2.08;;
45836;SDS011;31548;51.420;-0.040;2023-06-14T06:36:44;5.55;;;1.50;;
45836;SDS011;31548;51.420;-0.040;2023-06-14T06:39:11;7.35;;;1.20;;
45836;SDS011;31548;51.420;-0.040;2023-06-14T06:41:39;8.98;;;1.70;;
45836;SDS011;31548;51.420;-0.040;2023-06-14T06:44:06;7.30;;;2.00;;
45836;SDS011;31548;51.420;-0.040;2023-06-14T06:46:34;5.97;;;1.60;;
45836;SDS011;31548;51.420;-0.040;2023-06-14T06:49:07;8.48;;;2.05;;
45836;SDS011;31548;51.420;-0.040;2023-06-14T06:51:34;9.82;;;1.85;;
45836;SDS011;31548;51.420;-0.040;2023-06-14T06:54:03;9.43;;;2.03;;
45836;SDS011;31548;51.420;-0.040;2023-06-14T06:56:32;8.23;;;2.17;;
45836;SDS011;31548;51.420;-0.040;2023-06-14T06:59:00;8.82;;;2.10;;
45836;SDS011;31548;51.420;-0.040;2023-06-14T07:01:27;9.60;;;1.80;;
45836;SDS011;31548;51.420;-0.040;2023-06-14T07:03:55;8.20;;;1.20;;
45836;SDS011;31548;51.420;-0.040;2023-06-14T07:06:23;7.68;;;1.58;;
45836;SDS011;31548;51.420;-0.040;2023-06-14T07:08:54;13.77;;;1.48;;
45836;SDS011;31548;51.420;-0.040;2023-06-14T07:11:21;10.68;;;2.33;;
45836;SDS011;31548;51.420;-0.040;2023-06-14T07:13:48;6.05;;;1.73;;
45836;SDS011;31548;51.420;-0.040;2023-06-14T07:16:16;5.82;;;1.83;;
45836;SDS011;31548;51.420;-0.040;2023-06-14T07:18:43;14.50;;;1.65;;
45836;SDS011;31548;51.420;-0.040;2023-06-14T07:21:11;9.48;;;2.28;;
45836;SDS011;31548;51.420;-0.040;2023-06-14T07:23:38;11.80;;;2.03;;
45836;SDS011;31548;51.420;-0.040;2023-06-14T07:26:05;8.35;;;1.70;;
45836;SDS011;31548;51.420;-0.040;2023-06-14T07:28:33;12.27;;;2.78;;
45836;SDS011;31548;51.420;-0.040;2023-06-14T07:31:00;22.40;;;3.28;;
45836;SDS011;31548;51.420;-0.040;2023-06-14T07:33:28;11.73;;;1.80;;
45836;SDS011;31548;51.420;-0.040;2023-06-14T07:35:55;11.57;;;2.83;;
45836;SDS011;31548;51.420;-0.040;2023-06-14T07:38:23;8.68;;;1.90;;
45836;SDS011;31548;51.420;-0.040;2023-06-14T07:40:50;12.38;;;3.50;;
45836;SDS011;31548;51.420;-0.040;2023-06-14T07:43:17;9.30;;;1.92;;
45836;SDS011;31548;51.420;-0.040;2023-06-14T07:45:48;9.15;;;2.72;;
45836;SDS011;31548;51.420;-0.040;2023-06-14T07:48:28;8.40;;;1.92;;
45836;SDS011;31548;51.420;-0.040;2023-06-14T07:50:55;8.65;;;2.10;;
45836;SDS011;31548;51.420;-0.040;2023-06-14T07:53:23;12.18;;;2.67;;
45836;SDS011;31548;51.420;-0.040;2023-06-14T07:55:52;7.47;;;1.65;;
45836;SDS011;31548;51.420;-0.040;2023-06-14T07:58:19;11.32;;;2.10;;
45836;SDS011;31548;51.420;-0.040;2023-06-14T08:00:47;11.35;;;2.28;;
45836;SDS011;31548;51.420;-0.040;2023-06-14T08:03:14;9.18;;;2.47;;
45836;SDS011;31548;51.420;-0.040;2023-06-14T08:05:42;12.82;;;2.60;;
45836;SDS011;31548;51.420;-0.040;2023-06-14T08:08:09;10.30;;;1.95;;
45836;SDS011;31548;51.420;-0.040;2023-06-14T08:10:37;11.77;;;2.00;;
45836;SDS011;31548;51.420;-0.040;2023-06-14T08:13:04;14.52;;;2.85;;
45836;SDS011;31548;51.420;-0.040;2023-06-14T08:15:31;14.93;;;3.03;;
45836;SDS011;31548;51.420;-0.040;2023-06-14T08:18:00;7.57;;;1.88;;
45836;SDS011;31548;51.420;-0.040;2023-06-14T08:20:28;8.15;;;1.70;;
45836;SDS011;31548;51.420;-0.040;2023-06-14T08:22:57;6.88;;;2.25;;
45836;SDS011;31548;51.420;-0.040;2023-06-14T08:25:24;6.95;;;1.85;;
45836;SDS011;31548;51.420;-0.040;2023-06-14T08:27:52;11.68;;;1.90;;
45836;SDS011;31548;51.420;-0.040;2023-06-14T08:30:20;7.13;;;1.83;;
45836;SDS011;31548;51.420;-0.040;2023-06-14T08:32:47;7.85;;;1.67;;
45836;SDS011;31548;51.420;-0.040;2023-06-14T08:35:24;9.35;;;1.95;;
45836;SDS011;31548;51.420;-0.040;2023-06-14T08:37:51;6.65;;;1.98;;
45836;SDS011;31548;51.420;-0.040;2023-06-14T08:40:20;9.13;;;1.83;;
45836;SDS011;31548;51.420;-0.040;2023-06-14T08:42:50;8.52;;;1.80;;
45836;SDS011;31548;51.420;-0.040;2023-06-14T08:45:22;8.23;;;2.00;;
45836;SDS011;31548;51.420;-0.040;2023-06-14T08:47:54;10.45;;;2.88;;
45836;SDS011;31548;51.420;-0.040;2023-06-14T08:50:28;14.38;;;2.63;;
45836;SDS011;31548;51.420;-0.040;2023-06-14T08:52:59;3.95;;;1.33;;
45836;SDS011;31548;51.420;-0.040;2023-06-14T08:55:30;16.75;;;2.38;;
45836;SDS011;31548;51.420;-0.040;2023-06-14T08:58:03;14.43;;;2.25;;
45836;SDS011;31548;51.420;-0.040;2023-06-14T09:00:32;9.82;;;2.70;;
45836;SDS011;31548;51.420;-0.040;2023-06-14T09:03:00;13.57;;;2.90;;
45836;SDS011;31548;51.420;-0.040;2023-06-14T09:05:28;9.80;;;2.78;;
45836;SDS011;31548;51.420;-0.040;2023-06-14T09:07:55;8.55;;;1.55;;
45836;SDS011;31548;51.420;-0.040;2023-06-14T09:10:31;7.32;;;2.05;;
45836;SDS011;31548;51.420;-0.040;2023-06-14T09:13:05;6.85;;;1.85;;
45836;SDS011;31548;51.420;-0.040;2023-06-14T09:15:34;9.60;;;2.38;;
45836;SDS011;31548;51.420;-0.040;2023-06-14T09:18:02;14.13;;;2.20;;
45836;SDS011;31548;51.420;-0.040;2023-06-14T09:20:30;11.60;;;2.33;;
45836;SDS011;31548;51.420;-0.040;2023-06-14T09:22:58;13.07;;;2.33;;
45836;SDS011;31548;51.420;-0.040;2023-06-14T09:25:25;12.05;;;2.67;;
45836;SDS011;31548;51.420;-0.040;2023-06-14T09:28:09;10.65;;;1.58;;
45836;SDS011;31548;51.420;-0.040;2023-06-14T09:30:37;15.43;;;3.53;;
45836;SDS011;31548;51.420;-0.040;2023-06-14T09:33:05;13.85;;;2.00;;
45836;SDS011;31548;51.420;-0.040;2023-06-14T09:35:33;9.23;;;1.73;;
45836;SDS011;31548;51.420;-0.040;2023-06-14T09:38:01;8.30;;;1.63;;
45836;SDS011;31548;51.420;-0.040;2023-06-14T09:40:29;6.68;;;2.00;;
45836;SDS011;31548;51.420;-0.040;2023-06-14T09:43:04;7.43;;;2.25;;
45836;SDS011;31548;51.420;-0.040;2023-06-14T09:45:38;6.95;;;2.08;;
45836;SDS011;31548;51.420;-0.040;2023-06-14T09:48:07;6.53;;;1.77;;
45836;SDS011;31548;51.420;-0.040;2023-06-14T09:50:38;7.18;;;1.92;;
45836;SDS011;31548;51.420;-0.040;2023-06-14T09:53:07;8.13;;;2.15;;
45836;SDS011;31548;51.420;-0.040;2023-06-14T09:55:37;10.63;;;2.15;;
45836;SDS011;31548;51.420;-0.040;2023-06-14T09:58:08;7.30;;;2.03;;
45836;SDS011;31548;51.420;-0.040;2023-06-14T10:00:36;5.65;;;1.88;;
45836;SDS011;31548;51.420;-0.040;2023-06-14T10:03:06;11.88;;;2.33;;
45836;SDS011;31548;51.420;-0.040;2023-06-14T10:05:44;10.77;;;1.90;;
45836;SDS011;31548;51.420;-0.040;2023-06-14T10:08:14;8.52;;;2.05;;
45836;SDS011;31548;51.420;-0.040;2023-06-14T10:10:44;5.75;;;1.60;;
45836;SDS011;31548;51.420;-0.040;2023-06-14T10:13:12;7.07;;;1.80;;
45836;SDS011;31548;51.420;-0.040;2023-06-14T10:18:19;13.25;;;2.60;;
45836;SDS011;31548;51.420;-0.040;2023-06-14T10:24:10;5.65;;;2.15;;
45836;SDS011;31548;51.420;-0.040;2023-06-14T10:27:00;7.07;;;1.83;;
45836;SDS011;31548;51.420;-0.040;2023-06-14T10:29:28;6.28;;;2.40;;
45836;SDS011;31548;51.420;-0.040;2023-06-14T10:31:59;9.48;;;2.45;;
45836;SDS011;31548;51.420;-0.040;2023-06-14T10:34:29;11.80;;;3.25;;
45836;SDS011;31548;51.420;-0.040;2023-06-14T10:37:04;5.70;;;1.63;;
45836;SDS011;31548;51.420;-0.040;2023-06-14T10:39:40;12.77;;;2.50;;
45836;SDS011;31548;51.420;-0.040;2023-06-14T10:42:09;8.98;;;1.70;;
45836;SDS011;31548;51.420;-0.040;2023-06-14T10:44:38;6.90;;;2.25;;
45836;SDS011;31548;51.420;-0.040;2023-06-14T10:47:25;7.72;;;2.38;;
45836;SDS011;31548;51.420;-0.040;2023-06-14T10:50:03;8.50;;;2.58;;
45836;SDS011;31548;51.420;-0.040;2023-06-14T10:52:33;4.65;;;1.83;;
45836;SDS011;31548;51.420;-0.040;2023-06-14T10:55:09;4.40;;;1.77;;
45836;SDS011;31548;51.420;-0.040;2023-06-14T10:57:47;6.05;;;1.90;;
45836;SDS011;31548;51.420;-0.040;2023-06-14T11:00:21;6.90;;;2.17;;
45836;SDS011;31548;51.420;-0.040;2023-06-14T11:11:01;15.25;;;2.10;;
45836;SDS011;31548;51.420;-0.040;2023-06-14T11:13:37;8.48;;;2.30;;
45836;SDS011;31548;51.420;-0.040;2023-06-14T11:21:09;10.73;;;2.25;;
45836;SDS011;31548;51.420;-0.040;2023-06-14T11:23:36;5.63;;;1.70;;
45836;SDS011;31548;51.420;-0.040;2023-06-14T11:26:04;3.15;;;1.50;;
45836;SDS011;31548;51.420;-0.040;2023-06-14T11:28:38;7.07;;;2.17;;
45836;SDS011;31548;51.420;-0.040;2023-06-14T11:31:07;8.43;;;1.63;;
45836;SDS011;31548;51.420;-0.040;2023-06-14T11:33:34;10.40;;;1.95;;
45836;SDS011;31548;51.420;-0.040;2023-06-14T11:36:02;11.57;;;2.00;;
45836;SDS011;31548;51.420;-0.040;2023-06-14T11:38:34;9.95;;;3.17;;
45836;SDS011;31548;51.420;-0.040;2023-06-14T11:41:03;5.53;;;1.85;;
45836;SDS011;31548;51.420;-0.040;2023-06-14T11:43:30;4.65;;;2.20;;
45836;SDS011;31548;51.420;-0.040;2023-06-14T11:46:00;5.95;;;1.75;;
45836;SDS011;31548;51.420;-0.040;2023-06-14T11:48:41;7.50;;;1.77;;
45836;SDS011;31548;51.420;-0.040;2023-06-14T11:51:09;7.05;;;1.77;;
45836;SDS011;31548;51.420;-0.040;2023-06-14T11:53:38;3.17;;;1.27;;
45836;SDS011;31548;51.420;-0.040;2023-06-14T11:56:06;3.72;;;1.50;;
45836;SDS011;31548;51.420;-0.040;2023-06-14T11:58:34;6.75;;;2.25;;
45836;SDS011;31548;51.420;-0.040;2023-06-14T12:01:05;6.97;;;1.77;;
45836;SDS011;31548;51.420;-0.040;2023-06-14T12:03:33;4.72;;;1.58;;
45836;SDS011;31548;51.420;-0.040;2023-06-14T12:06:06;3.38;;;1.67;;
45836;SDS011;31548;51.420;-0.040;2023-06-14T12:08:35;6.05;;;2.20;;
45836;SDS011;31548;51.420;-0.040;2023-06-14T12:11:11;5.25;;;1.65;;
45836;SDS011;31548;51.420;-0.040;2023-06-14T12:13:41;5.80;;;1.73;;
45836;SDS011;31548;51.420;-0.040;2023-06-14T12:16:09;6.55;;;1.85;;
45836;SDS011;31548;51.420;-0.040;2023-06-14T12:18:38;5.50;;;1.70;;
45836;SDS011;31548;51.420;-0.040;2023-06-14T12:21:08;14.23;;;2.22;;
45836;SDS011;31548;51.420;-0.040;2023-06-14T12:26:17;8.95;;;1.58;;
45836;SDS011;31548;51.420;-0.040;2023-06-14T12:28:46;12.70;;;2.63;;
45836;SDS011;31548;51.420;-0.040;2023-06-14T12:31:15;3.92;;;1.80;;
45836;SDS011;31548;51.420;-0.040;2023-06-14T12:33:43;7.07;;;1.65;;
45836;SDS011;31548;51.420;-0.040;2023-06-14T12:36:13;6.30;;;2.13;;
45836;SDS011;31548;51.420;-0.040;2023-06-14T12:38:40;4.38;;;1.60;;
45836;SDS011;31548;51.420;-0.040;2023-06-14T12:41:08;6.97;;;1.50;;
45836;SDS011;31548;51.420;-0.040;2023-06-14T12:43:36;4.40;;;1.73;;
45836;SDS011;31548;51.420;-0.040;2023-06-14T12:46:04;9.93;;;2.08;;
45836;SDS011;31548;51.420;-0.040;2023-06-14T12:48:32;7.47;;;2.30;;
45836;SDS011;31548;51.420;-0.040;2023-06-14T12:51:01;9.27;;;2.17;;
45836;SDS011;31548;51.420;-0.040;2023-06-14T12:53:28;9.57;;;2.08;;
45836;SDS011;31548;51.420;-0.040;2023-06-14T12:55:56;6.00;;;1.45;;
45836;SDS011;31548;51.420;-0.040;2023-06-14T12:58:24;7.20;;;2.00;;
45836;SDS011;31548;51.420;-0.040;2023-06-14T13:00:51;4.88;;;1.58;;
45836;SDS011;31548;51.420;-0.040;2023-06-14T13:03:19;15.27;;;1.83;;
45836;SDS011;31548;51.420;-0.040;2023-06-14T13:08:51;5.50;;;1.97;;
45836;SDS011;31548;51.420;-0.040;2023-06-14T13:11:21;5.60;;;1.80;;
45836;SDS011;31548;51.420;-0.040;2023-06-14T13:13:49;7.53;;;1.92;;
45836;SDS011;31548;51.420;-0.040;2023-06-14T13:16:17;4.85;;;1.65;;
45836;SDS011;31548;51.420;-0.040;2023-06-14T13:18:45;8.27;;;2.10;;
45836;SDS011;31548;51.420;-0.040;2023-06-14T13:21:12;4.97;;;1.85;;
45836;SDS011;31548;51.420;-0.040;2023-06-14T13:23:41;6.93;;;2.53;;
45836;SDS011;31548;51.420;-0.040;2023-06-14T13:26:09;8.38;;;1.85;;
45836;SDS011;31548;51.420;-0.040;2023-06-14T13:28:36;6.70;;;1.52;;
45836;SDS011;31548;51.420;-0.040;2023-06-14T13:31:04;3.58;;;1.77;;
45836;SDS011;31548;51.420;-0.040;2023-06-14T13:33:31;10.63;;;2.00;;
45836;SDS011;31548;51.420;-0.040;2023-06-14T13:35:59;6.13;;;2.03;;
45836;SDS011;31548;51.420;-0.040;2023-06-14T13:38:27;10.65;;;1.60;;
45836;SDS011;31548;51.420;-0.040;2023-06-14T13:40:54;8.55;;;1.75;;
45836;SDS011;31548;51.420;-0.040;2023-06-14T13:43:22;8.55;;;2.00;;
45836;SDS011;31548;51.420;-0.040;2023-06-14T13:45:50;8.82;;;1.75;;
45836;SDS011;31548;51.420;-0.040;2023-06-14T13:48:17;5.38;;;1.33;;
45836;SDS011;31548;51.420;-0.040;2023-06-14T13:50:45;3.97;;;1.40;;
45836;SDS011;31548;51.420;-0.040;2023-06-14T13:53:13;4.57;;;1.77;;
45836;SDS011;31548;51.420;-0.040;2023-06-14T13:55:41;4.15;;;1.65;;
45836;SDS011;31548;51.420;-0.040;2023-06-14T13:58:08;5.72;;;1.80;;
45836;SDS011;31548;51.420;-0.040;2023-06-14T14:00:36;5.93;;;1.70;;
45836;SDS011;31548;51.420;-0.040;2023-06-14T14:03:07;3.65;;;1.95;;
45836;SDS011;31548;51.420;-0.040;2023-06-14T14:05:35;3.75;;;1.50;;
45836;SDS011;31548;51.420;-0.040;2023-06-14T14:08:03;5.95;;;2.10;;
45836;SDS011;31548;51.420;-0.040;2023-06-14T14:10:30;6.13;;;1.73;;
45836;SDS011;31548;51.420;-0.040;2023-06-14T14:12:58;4.45;;;2.38;;
45836;SDS011;31548;51.420;-0.040;2023-06-14T14:15:26;5.60;;;1.75;;
45836;SDS011;31548;51.420;-0.040;2023-06-14T14:17:55;8.55;;;1.73;;
45836;SDS011;31548;51.420;-0.040;2023-06-14T14:20:24;5.22;;;1.70;;
45836;SDS011;31548;51.420;-0.040;2023-06-14T14:22:52;6.28;;;2.15;;
45836;SDS011;31548;51.420;-0.040;2023-06-14T14:25:19;4.38;;;1.90;;
45836;SDS011;31548;51.420;-0.040;2023-06-14T14:27:47;5.82;;;1.60;;
45836;SDS011;31548;51.420;-0.040;2023-06-14T14:30:14;7.50;;;1.63;;
45836;SDS011;31548;51.420;-0.040;2023-06-14T14:32:44;1.50;;;1.38;;
45836;SDS011;31548;51.420;-0.040;2023-06-14T14:35:11;4.90;;;2.00;;
45836;SDS011;31548;51.420;-0.040;2023-06-14T14:37:39;7.10;;;2.00;;
45836;SDS011;31548;51.420;-0.040;2023-06-14T14:40:06;3.22;;;1.80;;
45836;SDS011;31548;51.420;-0.040;2023-06-14T14:42:36;5.07;;;1.85;;
45836;SDS011;31548;51.420;-0.040;2023-06-14T14:45:04;4.75;;;1.58;;
45836;SDS011;31548;51.420;-0.040;2023-06-14T14:47:32;6.40;;;2.22;;
45836;SDS011;31548;51.420;-0.040;2023-06-14T14:50:00;2.30;;;1.60;;
45836;SDS011;31548;51.420;-0.040;2023-06-14T14:52:28;7.95;;;2.15;;
45836;SDS011;31548;51.420;-0.040;2023-06-14T14:54:56;4.75;;;1.67;;
45836;SDS011;31548;51.420;-0.040;2023-06-14T14:57:24;6.03;;;1.58;;
45836;SDS011;31548;51.420;-0.040;2023-06-14T14:59:51;2.80;;;1.70;;
45836;SDS011;31548;51.420;-0.040;2023-06-14T15:02:19;3.60;;;1.70;;
45836;SDS011;31548;51.420;-0.040;2023-06-14T15:04:46;7.43;;;2.35;;
45836;SDS011;31548;51.420;-0.040;2023-06-14T15:07:14;2.42;;;1.73;;
45836;SDS011;31548;51.420;-0.040;2023-06-14T15:09:41;3.13;;;1.95;;
45836;SDS011;31548;51.420;-0.040;2023-06-14T15:12:10;5.13;;;1.85;;
45836;SDS011;31548;51.420;-0.040;2023-06-14T15:14:38;4.47;;;2.35;;